sensor_id;sensor_type;location;lat;lon;timestamp;P1;durP1;ratioP1;P2;durP2;ratioP2
62014;SDS011;47970;52.396;9.586;2022-11-13T00:00:47;11.63;;;5.85;;
62014;SDS011;47970;52.396;9.586;2022-11-13T00:03:12;12.80;;;6.17;;
62014;SDS011;47970;52.396;9.586;2022-11-13T00:05:37;10.73;;;5.77;;
62014;SDS011;47970;52.396;9.586;2022-11-13T00:08:02;12.03;;;5.97;;
62014;SDS011;47970;52.396;9.586;2022-11-13T00:10:27;11.32;;;5.32;;
62014;SDS011;47970;52.396;9.586;2022-11-13T00:12:53;14.80;;;5.40;;
62014;SDS011;47970;52.396;9.586;2022-11-13T00:15:18;10.65;;;5.25;;
62014;SDS011;47970;52.396;9.586;2022-11-13T00:17:43;12.43;;;5.78;;
62014;SDS011;47970;52.396;9.586;2022-11-13T00:20:09;11.27;;;5.38;;
62014;SDS011;47970;52.396;9.586;2022-11-13T00:22:34;11.82;;;5.38;;
62014;SDS011;47970;52.396;9.586;2022-11-13T00:24:59;10.30;;;5.28;;
62014;SDS011;47970;52.396;9.586;2022-11-13T00:27:24;10.83;;;5.80;;
62014;SDS011;47970;52.396;9.586;2022-11-13T00:29:50;13.75;;;5.35;;
62014;SDS011;47970;52.396;9.586;2022-11-13T00:32:15;12.48;;;5.72;;
62014;SDS011;47970;52.396;9.586;2022-11-13T00:34:40;8.75;;;5.32;;
62014;SDS011;47970;52.396;9.586;2022-11-13T00:37:05;14.93;;;5.57;;
62014;SDS011;47970;52.396;9.586;2022-11-13T00:39:30;15.97;;;5.33;;
62014;SDS011;47970;52.396;9.586;2022-11-13T00:41:56;10.73;;;5.37;;
62014;SDS011;47970;52.396;9.586;2022-11-13T00:44:21;10.52;;;5.70;;
62014;SDS011;47970;52.396;9.586;2022-11-13T00:46:46;12.10;;;5.80;;
62014;SDS011;47970;52.396;9.586;2022-11-13T00:49:11;8.00;;;5.00;;
62014;SDS011;47970;52.396;9.586;2022-11-13T00:51:37;11.63;;;5.22;;
62014;SDS011;47970;52.396;9.586;2022-11-13T00:54:02;9.73;;;5.45;;
62014;SDS011;47970;52.396;9.586;2022-11-13T00:56:27;12.10;;;5.77;;
62014;SDS011;47970;52.396;9.586;2022-11-13T00:58:53;10.48;;;5.60;;
62014;SDS011;47970;52.396;9.586;2022-11-13T01:01:18;9.77;;;5.27;;
62014;SDS011;47970;52.396;9.586;2022-11-13T01:03:43;12.88;;;5.72;;
62014;SDS011;47970;52.396;9.586;2022-11-13T01:06:13;9.98;;;5.50;;
62014;SDS011;47970;52.396;9.586;2022-11-13T01:08:38;10.43;;;5.07;;
62014;SDS011;47970;52.396;9.586;2022-11-13T01:11:11;10.88;;;5.35;;
62014;SDS011;47970;52.396;9.586;2022-11-13T01:13:37;11.50;;;6.25;;
62014;SDS011;47970;52.396;9.586;2022-11-13T01:16:06;10.10;;;4.97;;
62014;SDS011;47970;52.396;9.586;2022-11-13T01:18:32;9.75;;;4.90;;
62014;SDS011;47970;52.396;9.586;2022-11-13T01:21:01;13.43;;;5.90;;
62014;SDS011;47970;52.396;9.586;2022-11-13T01:23:26;9.68;;;5.50;;
62014;SDS011;47970;52.396;9.586;2022-11-13T01:25:51;10.32;;;5.55;;
62014;SDS011;47970;52.396;9.586;2022-11-13T01:28:17;11.27;;;5.15;;
62014;SDS011;47970;52.396;9.586;2022-11-13T01:30:42;8.93;;;5.30;;
62014;SDS011;47970;52.396;9.586;2022-11-13T01:33:07;9.88;;;5.93;;
62014;SDS011;47970;52.396;9.586;2022-11-13T01:35:32;14.73;;;5.60;;
62014;SDS011;47970;52.396;9.586;2022-11-13T01:37:57;9.60;;;5.17;;
62014;SDS011;47970;52.396;9.586;2022-11-13T01:40:23;10.98;;;5.75;;
62014;SDS011;47970;52.396;9.586;2022-11-13T01:42:48;17.63;;;5.93;;
62014;SDS011;47970;52.396;9.586;2022-11-13T01:47:57;12.63;;;5.68;;
62014;SDS011;47970;52.396;9.586;2022-11-13T01:50:23;10.77;;;5.53;;
62014;SDS011;47970;52.396;9.586;2022-11-13T01:52:48;9.95;;;5.07;;
62014;SDS011;47970;52.396;9.586;2022-11-13T01:55:15;10.73;;;5.30;;
62014;SDS011;47970;52.396;9.586;2022-11-13T01:57:41;8.20;;;4.78;;
62014;SDS011;47970;52.396;9.586;2022-11-13T02:00:07;12.82;;;5.75;;
62014;SDS011;47970;52.396;9.586;2022-11-13T02:02:33;10.80;;;4.97;;
62014;SDS011;47970;52.396;9.586;2022-11-13T02:04:59;10.48;;;5.28;;
62014;SDS011;47970;52.396;9.586;2022-11-13T02:07:24;9.80;;;5.18;;
62014;SDS011;47970;52.396;9.586;2022-11-13T02:09:51;12.27;;;5.10;;
62014;SDS011;47970;52.396;9.586;2022-11-13T02:12:28;8.45;;;4.70;;
62014;SDS011;47970;52.396;9.586;2022-11-13T02:14:54;9.57;;;5.30;;
62014;SDS011;47970;52.396;9.586;2022-11-13T02:17:22;12.65;;;5.60;;
62014;SDS011;47970;52.396;9.586;2022-11-13T02:19:50;10.30;;;5.40;;
62014;SDS011;47970;52.396;9.586;2022-11-13T02:25:01;8.93;;;5.47;;
62014;SDS011;47970;52.396;9.586;2022-11-13T02:27:34;11.55;;;5.72;;
62014;SDS011;47970;52.396;9.586;2022-11-13T02:32:55;11.75;;;5.38;;
62014;SDS011;47970;52.396;9.586;2022-11-13T02:35:22;11.02;;;4.80;;
62014;SDS011;47970;52.396;9.586;2022-11-13T02:37:48;9.25;;;5.03;;
62014;SDS011;47970;52.396;9.586;2022-11-13T02:40:13;9.53;;;5.40;;
62014;SDS011;47970;52.396;9.586;2022-11-13T02:42:39;11.10;;;5.38;;
62014;SDS011;47970;52.396;9.586;2022-11-13T02:45:05;11.17;;;5.33;;
62014;SDS011;47970;52.396;9.586;2022-11-13T02:47:30;10.13;;;4.82;;
62014;SDS011;47970;52.396;9.586;2022-11-13T02:49:55;10.73;;;5.25;;
62014;SDS011;47970;52.396;9.586;2022-11-13T02:52:21;10.47;;;5.37;;
62014;SDS011;47970;52.396;9.586;2022-11-13T02:54:46;10.70;;;5.30;;
62014;SDS011;47970;52.396;9.586;2022-11-13T02:57:11;12.80;;;5.20;;
62014;SDS011;47970;52.396;9.586;2022-11-13T02:59:36;9.98;;;5.63;;
62014;SDS011;47970;52.396;9.586;2022-11-13T03:02:02;8.45;;;5.25;;
62014;SDS011;47970;52.396;9.586;2022-11-13T03:04:27;9.30;;;5.20;;
62014;SDS011;47970;52.396;9.586;2022-11-13T03:06:52;9.47;;;5.23;;
62014;SDS011;47970;52.396;9.586;2022-11-13T03:09:17;10.10;;;4.73;;
62014;SDS011;47970;52.396;9.586;2022-11-13T03:11:43;12.73;;;5.50;;
62014;SDS011;47970;52.396;9.586;2022-11-13T03:14:08;8.63;;;5.03;;
62014;SDS011;47970;52.396;9.586;2022-11-13T03:16:33;7.75;;;5.05;;
62014;SDS011;47970;52.396;9.586;2022-11-13T03:18:59;8.63;;;5.13;;
62014;SDS011;47970;52.396;9.586;2022-11-13T03:21:24;10.98;;;5.60;;
62014;SDS011;47970;52.396;9.586;2022-11-13T03:23:50;8.93;;;5.17;;
62014;SDS011;47970;52.396;9.586;2022-11-13T03:26:15;10.10;;;5.88;;
62014;SDS011;47970;52.396;9.586;2022-11-13T03:28:41;14.32;;;5.57;;
62014;SDS011;47970;52.396;9.586;2022-11-13T03:31:06;11.35;;;5.45;;
62014;SDS011;47970;52.396;9.586;2022-11-13T03:33:32;9.65;;;5.10;;
62014;SDS011;47970;52.396;9.586;2022-11-13T03:35:57;10.43;;;5.25;;
62014;SDS011;47970;52.396;9.586;2022-11-13T03:38:22;11.68;;;5.63;;
62014;SDS011;47970;52.396;9.586;2022-11-13T03:40:48;10.05;;;5.07;;
62014;SDS011;47970;52.396;9.586;2022-11-13T03:43:13;12.65;;;5.40;;
62014;SDS011;47970;52.396;9.586;2022-11-13T03:45:38;7.25;;;4.88;;
62014;SDS011;47970;52.396;9.586;2022-11-13T03:48:03;9.20;;;4.97;;
62014;SDS011;47970;52.396;9.586;2022-11-13T03:50:29;9.65;;;5.13;;
62014;SDS011;47970;52.396;9.586;2022-11-13T03:52:54;10.48;;;5.30;;
62014;SDS011;47970;52.396;9.586;2022-11-13T03:55:19;9.67;;;5.10;;
62014;SDS011;47970;52.396;9.586;2022-11-13T03:57:45;7.43;;;4.50;;
62014;SDS011;47970;52.396;9.586;2022-11-13T04:00:11;8.15;;;4.95;;
62014;SDS011;47970;52.396;9.586;2022-11-13T04:02:36;10.00;;;5.30;;
62014;SDS011;47970;52.396;9.586;2022-11-13T04:05:01;11.67;;;5.87;;
62014;SDS011;47970;52.396;9.586;2022-11-13T04:07:26;9.40;;;4.90;;
62014;SDS011;47970;52.396;9.586;2022-11-13T04:09:52;10.07;;;5.37;;
62014;SDS011;47970;52.396;9.586;2022-11-13T04:12:17;10.48;;;5.20;;
62014;SDS011;47970;52.396;9.586;2022-11-13T04:14:42;9.40;;;4.93;;
62014;SDS011;47970;52.396;9.586;2022-11-13T04:17:07;9.30;;;4.83;;
62014;SDS011;47970;52.396;9.586;2022-11-13T04:19:33;9.75;;;5.13;;
62014;SDS011;47970;52.396;9.586;2022-11-13T04:21:58;8.70;;;4.97;;
62014;SDS011;47970;52.396;9.586;2022-11-13T04:24:23;9.70;;;6.07;;
62014;SDS011;47970;52.396;9.586;2022-11-13T04:26:48;10.40;;;5.60;;
62014;SDS011;47970;52.396;9.586;2022-11-13T04:29:14;9.77;;;5.40;;
62014;SDS011;47970;52.396;9.586;2022-11-13T04:31:39;9.05;;;5.25;;
62014;SDS011;47970;52.396;9.586;2022-11-13T04:34:04;10.98;;;5.30;;
62014;SDS011;47970;52.396;9.586;2022-11-13T04:36:29;12.63;;;5.47;;
62014;SDS011;47970;52.396;9.586;2022-11-13T04:38:54;8.10;;;4.97;;
62014;SDS011;47970;52.396;9.586;2022-11-13T04:41:20;9.37;;;4.87;;
62014;SDS011;47970;52.396;9.586;2022-11-13T04:44:04;11.52;;;4.97;;
62014;SDS011;47970;52.396;9.586;2022-11-13T04:46:29;11.13;;;5.07;;
62014;SDS011;47970;52.396;9.586;2022-11-13T04:48:54;10.50;;;5.17;;
62014;SDS011;47970;52.396;9.586;2022-11-13T04:51:20;8.40;;;4.50;;
62014;SDS011;47970;52.396;9.586;2022-11-13T04:53:45;9.48;;;4.70;;
62014;SDS011;47970;52.396;9.586;2022-11-13T04:56:11;7.97;;;4.50;;
62014;SDS011;47970;52.396;9.586;2022-11-13T04:58:36;9.47;;;5.20;;
62014;SDS011;47970;52.396;9.586;2022-11-13T05:01:01;10.47;;;4.87;;
62014;SDS011;47970;52.396;9.586;2022-11-13T05:03:28;11.63;;;5.45;;
62014;SDS011;47970;52.396;9.586;2022-11-13T05:05:53;9.13;;;5.00;;
62014;SDS011;47970;52.396;9.586;2022-11-13T05:08:24;15.02;;;5.18;;
62014;SDS011;47970;52.396;9.586;2022-11-13T05:10:50;8.00;;;5.20;;
62014;SDS011;47970;52.396;9.586;2022-11-13T05:13:15;9.53;;;5.33;;
62014;SDS011;47970;52.396;9.586;2022-11-13T05:15:40;11.23;;;5.37;;
62014;SDS011;47970;52.396;9.586;2022-11-13T05:18:05;9.27;;;5.40;;
62014;SDS011;47970;52.396;9.586;2022-11-13T05:20:30;9.77;;;4.73;;
62014;SDS011;47970;52.396;9.586;2022-11-13T05:22:56;10.88;;;5.22;;
62014;SDS011;47970;52.396;9.586;2022-11-13T05:25:21;8.83;;;4.77;;
62014;SDS011;47970;52.396;9.586;2022-11-13T05:27:46;14.53;;;5.70;;
62014;SDS011;47970;52.396;9.586;2022-11-13T05:30:11;11.70;;;5.00;;
62014;SDS011;47970;52.396;9.586;2022-11-13T05:32:37;8.52;;;5.10;;
62014;SDS011;47970;52.396;9.586;2022-11-13T05:35:02;11.33;;;5.00;;
62014;SDS011;47970;52.396;9.586;2022-11-13T05:37:27;8.70;;;4.90;;
62014;SDS011;47970;52.396;9.586;2022-11-13T05:39:53;10.45;;;4.53;;
62014;SDS011;47970;52.396;9.586;2022-11-13T05:42:18;12.97;;;4.90;;
62014;SDS011;47970;52.396;9.586;2022-11-13T05:44:43;15.37;;;5.60;;
62014;SDS011;47970;52.396;9.586;2022-11-13T05:47:09;8.38;;;4.10;;
62014;SDS011;47970;52.396;9.586;2022-11-13T05:49:34;8.87;;;4.50;;
62014;SDS011;47970;52.396;9.586;2022-11-13T05:51:59;11.77;;;5.73;;
62014;SDS011;47970;52.396;9.586;2022-11-13T05:54:24;9.03;;;4.77;;
62014;SDS011;47970;52.396;9.586;2022-11-13T05:56:49;10.30;;;4.83;;
62014;SDS011;47970;52.396;9.586;2022-11-13T05:59:15;11.13;;;4.73;;
62014;SDS011;47970;52.396;9.586;2022-11-13T06:01:40;8.50;;;4.32;;
62014;SDS011;47970;52.396;9.586;2022-11-13T06:04:06;8.25;;;4.38;;
62014;SDS011;47970;52.396;9.586;2022-11-13T06:06:32;8.95;;;4.65;;
62014;SDS011;47970;52.396;9.586;2022-11-13T06:08:58;8.07;;;4.65;;
62014;SDS011;47970;52.396;9.586;2022-11-13T06:11:25;7.85;;;4.68;;
62014;SDS011;47970;52.396;9.586;2022-11-13T06:13:51;10.40;;;5.88;;
62014;SDS011;47970;52.396;9.586;2022-11-13T06:16:20;10.90;;;4.95;;
62014;SDS011;47970;52.396;9.586;2022-11-13T06:18:46;13.52;;;5.45;;
62014;SDS011;47970;52.396;9.586;2022-11-13T06:21:13;8.60;;;5.25;;
62014;SDS011;47970;52.396;9.586;2022-11-13T06:23:39;9.75;;;5.15;;
62014;SDS011;47970;52.396;9.586;2022-11-13T06:26:05;7.45;;;4.65;;
62014;SDS011;47970;52.396;9.586;2022-11-13T06:28:31;10.00;;;5.40;;
62014;SDS011;47970;52.396;9.586;2022-11-13T06:31:01;9.23;;;4.90;;
62014;SDS011;47970;52.396;9.586;2022-11-13T06:33:27;9.02;;;4.82;;
62014;SDS011;47970;52.396;9.586;2022-11-13T06:35:52;7.57;;;4.95;;
62014;SDS011;47970;52.396;9.586;2022-11-13T06:38:17;11.43;;;5.33;;
62014;SDS011;47970;52.396;9.586;2022-11-13T06:40:42;11.73;;;5.57;;
62014;SDS011;47970;52.396;9.586;2022-11-13T06:43:08;8.67;;;4.77;;
62014;SDS011;47970;52.396;9.586;2022-11-13T06:45:33;9.43;;;5.30;;
62014;SDS011;47970;52.396;9.586;2022-11-13T06:47:59;10.57;;;4.85;;
62014;SDS011;47970;52.396;9.586;2022-11-13T06:50:24;10.77;;;5.45;;
62014;SDS011;47970;52.396;9.586;2022-11-13T06:52:49;14.73;;;5.88;;
62014;SDS011;47970;52.396;9.586;2022-11-13T06:55:15;9.67;;;5.73;;
62014;SDS011;47970;52.396;9.586;2022-11-13T06:57:40;15.18;;;6.45;;
62014;SDS011;47970;52.396;9.586;2022-11-13T07:00:05;10.53;;;6.20;;
62014;SDS011;47970;52.396;9.586;2022-11-13T07:02:30;9.52;;;5.30;;
62014;SDS011;47970;52.396;9.586;2022-11-13T07:04:56;12.50;;;5.47;;
62014;SDS011;47970;52.396;9.586;2022-11-13T07:07:21;10.60;;;5.67;;
62014;SDS011;47970;52.396;9.586;2022-11-13T07:09:46;12.03;;;5.90;;
62014;SDS011;47970;52.396;9.586;2022-11-13T07:12:11;13.17;;;6.63;;
62014;SDS011;47970;52.396;9.586;2022-11-13T07:14:37;11.60;;;6.37;;
62014;SDS011;47970;52.396;9.586;2022-11-13T07:17:02;13.50;;;6.33;;
62014;SDS011;47970;52.396;9.586;2022-11-13T07:19:27;11.77;;;6.73;;
62014;SDS011;47970;52.396;9.586;2022-11-13T07:21:52;15.05;;;7.10;;
62014;SDS011;47970;52.396;9.586;2022-11-13T07:24:17;15.30;;;8.20;;
62014;SDS011;47970;52.396;9.586;2022-11-13T07:26:43;11.93;;;6.47;;
62014;SDS011;47970;52.396;9.586;2022-11-13T07:29:08;13.50;;;7.07;;
62014;SDS011;47970;52.396;9.586;2022-11-13T07:31:33;13.60;;;7.17;;
62014;SDS011;47970;52.396;9.586;2022-11-13T07:33:58;10.37;;;6.47;;
62014;SDS011;47970;52.396;9.586;2022-11-13T07:36:23;12.23;;;7.00;;
62014;SDS011;47970;52.396;9.586;2022-11-13T07:38:50;15.17;;;6.93;;
62014;SDS011;47970;52.396;9.586;2022-11-13T07:41:15;11.27;;;6.32;;
62014;SDS011;47970;52.396;9.586;2022-11-13T07:43:40;13.70;;;7.27;;
62014;SDS011;47970;52.396;9.586;2022-11-13T07:46:06;11.83;;;6.43;;
62014;SDS011;47970;52.396;9.586;2022-11-13T07:48:31;11.83;;;6.70;;
62014;SDS011;47970;52.396;9.586;2022-11-13T07:51:00;15.73;;;6.82;;
62014;SDS011;47970;52.396;9.586;2022-11-13T07:53:26;16.65;;;6.85;;
62014;SDS011;47970;52.396;9.586;2022-11-13T07:55:51;11.87;;;6.50;;
62014;SDS011;47970;52.396;9.586;2022-11-13T07:58:16;14.33;;;6.77;;
62014;SDS011;47970;52.396;9.586;2022-11-13T08:00:41;12.73;;;5.60;;
62014;SDS011;47970;52.396;9.586;2022-11-13T08:03:08;13.23;;;6.93;;
62014;SDS011;47970;52.396;9.586;2022-11-13T08:05:33;13.30;;;7.70;;
62014;SDS011;47970;52.396;9.586;2022-11-13T08:07:58;13.30;;;7.95;;
62014;SDS011;47970;52.396;9.586;2022-11-13T08:10:24;14.57;;;7.05;;
62014;SDS011;47970;52.396;9.586;2022-11-13T08:12:55;13.80;;;7.13;;
62014;SDS011;47970;52.396;9.586;2022-11-13T08:15:21;13.43;;;8.05;;
62014;SDS011;47970;52.396;9.586;2022-11-13T08:17:52;11.87;;;7.10;;
62014;SDS011;47970;52.396;9.586;2022-11-13T08:20:17;12.05;;;6.65;;
62014;SDS011;47970;52.396;9.586;2022-11-13T08:22:42;13.03;;;7.40;;
62014;SDS011;47970;52.396;9.586;2022-11-13T08:25:07;13.10;;;6.80;;
62014;SDS011;47970;52.396;9.586;2022-11-13T08:27:33;12.43;;;6.85;;
62014;SDS011;47970;52.396;9.586;2022-11-13T08:29:58;17.38;;;7.95;;
62014;SDS011;47970;52.396;9.586;2022-11-13T08:32:23;12.73;;;7.23;;
62014;SDS011;47970;52.396;9.586;2022-11-13T08:34:48;12.35;;;7.45;;
62014;SDS011;47970;52.396;9.586;2022-11-13T08:37:14;14.07;;;7.43;;
62014;SDS011;47970;52.396;9.586;2022-11-13T08:39:39;16.38;;;7.38;;
62014;SDS011;47970;52.396;9.586;2022-11-13T08:42:04;10.93;;;6.60;;
62014;SDS011;47970;52.396;9.586;2022-11-13T08:44:30;27.88;;;7.88;;
62014;SDS011;47970;52.396;9.586;2022-11-13T08:46:55;13.13;;;7.25;;
62014;SDS011;47970;52.396;9.586;2022-11-13T08:49:20;12.95;;;6.65;;
62014;SDS011;47970;52.396;9.586;2022-11-13T08:51:46;12.97;;;6.73;;
62014;SDS011;47970;52.396;9.586;2022-11-13T08:54:11;12.90;;;6.77;;
62014;SDS011;47970;52.396;9.586;2022-11-13T08:56:36;16.67;;;7.37;;
62014;SDS011;47970;52.396;9.586;2022-11-13T08:59:01;10.50;;;6.47;;
62014;SDS011;47970;52.396;9.586;2022-11-13T09:01:26;14.53;;;7.10;;
62014;SDS011;47970;52.396;9.586;2022-11-13T09:03:52;14.10;;;7.40;;
62014;SDS011;47970;52.396;9.586;2022-11-13T09:06:17;11.80;;;7.43;;
62014;SDS011;47970;52.396;9.586;2022-11-13T09:08:42;14.60;;;7.07;;
62014;SDS011;47970;52.396;9.586;2022-11-13T09:11:07;15.10;;;7.73;;
62014;SDS011;47970;52.396;9.586;2022-11-13T09:13:33;13.80;;;7.80;;
62014;SDS011;47970;52.396;9.586;2022-11-13T09:15:59;13.02;;;7.90;;
62014;SDS011;47970;52.396;9.586;2022-11-13T09:18:24;14.35;;;7.95;;
62014;SDS011;47970;52.396;9.586;2022-11-13T09:20:49;15.17;;;8.23;;
62014;SDS011;47970;52.396;9.586;2022-11-13T09:23:16;13.90;;;7.35;;
62014;SDS011;47970;52.396;9.586;2022-11-13T09:25:41;12.00;;;7.60;;
62014;SDS011;47970;52.396;9.586;2022-11-13T09:28:06;15.23;;;7.67;;
62014;SDS011;47970;52.396;9.586;2022-11-13T09:30:31;14.85;;;8.13;;
62014;SDS011;47970;52.396;9.586;2022-11-13T09:32:58;13.63;;;8.20;;
62014;SDS011;47970;52.396;9.586;2022-11-13T09:35:23;18.60;;;8.75;;
62014;SDS011;47970;52.396;9.586;2022-11-13T09:38:08;12.98;;;7.15;;
62014;SDS011;47970;52.396;9.586;2022-11-13T09:40:37;17.05;;;8.30;;
62014;SDS011;47970;52.396;9.586;2022-11-13T09:43:03;15.40;;;8.52;;
62014;SDS011;47970;52.396;9.586;2022-11-13T09:45:30;14.77;;;8.45;;
62014;SDS011;47970;52.396;9.586;2022-11-13T09:47:58;17.50;;;8.88;;
62014;SDS011;47970;52.396;9.586;2022-11-13T09:50:26;14.80;;;8.50;;
62014;SDS011;47970;52.396;9.586;2022-11-13T09:52:52;13.95;;;8.18;;
62014;SDS011;47970;52.396;9.586;2022-11-13T09:55:19;14.52;;;9.10;;
62014;SDS011;47970;52.396;9.586;2022-11-13T09:57:54;16.92;;;7.95;;
62014;SDS011;47970;52.396;9.586;2022-11-13T10:00:21;15.27;;;7.85;;
62014;SDS011;47970;52.396;9.586;2022-11-13T10:07:42;13.90;;;8.47;;
62014;SDS011;47970;52.396;9.586;2022-11-13T10:12:52;15.82;;;8.13;;
62014;SDS011;47970;52.396;9.586;2022-11-13T10:15:20;16.48;;;8.15;;
62014;SDS011;47970;52.396;9.586;2022-11-13T10:17:52;13.03;;;7.93;;
62014;SDS011;47970;52.396;9.586;2022-11-13T10:20:30;12.20;;;7.82;;
62014;SDS011;47970;52.396;9.586;2022-11-13T10:22:58;14.55;;;8.40;;
62014;SDS011;47970;52.396;9.586;2022-11-13T10:25:27;14.93;;;8.38;;
62014;SDS011;47970;52.396;9.586;2022-11-13T10:27:56;18.23;;;8.90;;
62014;SDS011;47970;52.396;9.586;2022-11-13T10:30:21;15.15;;;9.68;;
62014;SDS011;47970;52.396;9.586;2022-11-13T10:32:47;15.63;;;10.10;;
62014;SDS011;47970;52.396;9.586;2022-11-13T10:37:59;15.00;;;9.98;;
62014;SDS011;47970;52.396;9.586;2022-11-13T10:40:26;12.40;;;8.77;;
62014;SDS011;47970;52.396;9.586;2022-11-13T10:42:51;12.13;;;9.25;;
62014;SDS011;47970;52.396;9.586;2022-11-13T10:45:17;13.47;;;8.83;;
62014;SDS011;47970;52.396;9.586;2022-11-13T10:47:45;14.63;;;9.15;;
62014;SDS011;47970;52.396;9.586;2022-11-13T10:50:17;12.43;;;9.05;;
62014;SDS011;47970;52.396;9.586;2022-11-13T10:52:44;13.07;;;9.18;;
62014;SDS011;47970;52.396;9.586;2022-11-13T10:57:41;10.93;;;8.55;;
62014;SDS011;47970;52.396;9.586;2022-11-13T11:00:19;12.30;;;9.00;;
62014;SDS011;47970;52.396;9.586;2022-11-13T11:02:49;12.18;;;9.27;;
62014;SDS011;47970;52.396;9.586;2022-11-13T11:07:39;10.97;;;8.13;;
62014;SDS011;47970;52.396;9.586;2022-11-13T11:10:52;14.43;;;8.57;;
62014;SDS011;47970;52.396;9.586;2022-11-13T11:12:54;13.10;;;8.77;;
62014;SDS011;47970;52.396;9.586;2022-11-13T11:18:02;12.10;;;8.45;;
62014;SDS011;47970;52.396;9.586;2022-11-13T11:20:40;12.68;;;8.20;;
62014;SDS011;47970;52.396;9.586;2022-11-13T11:25:53;12.05;;;8.27;;
62014;SDS011;47970;52.396;9.586;2022-11-13T11:31:02;12.25;;;9.27;;
62014;SDS011;47970;52.396;9.586;2022-11-13T11:33:33;11.90;;;9.23;;
62014;SDS011;47970;52.396;9.586;2022-11-13T11:36:14;14.75;;;9.70;;
62014;SDS011;47970;52.396;9.586;2022-11-13T11:38:44;11.98;;;8.55;;
62014;SDS011;47970;52.396;9.586;2022-11-13T11:41:13;14.80;;;9.82;;
62014;SDS011;47970;52.396;9.586;2022-11-13T11:43:46;16.45;;;10.40;;
62014;SDS011;47970;52.396;9.586;2022-11-13T11:46:12;14.52;;;10.30;;
62014;SDS011;47970;52.396;9.586;2022-11-13T11:48:38;15.75;;;10.32;;
62014;SDS011;47970;52.396;9.586;2022-11-13T11:56:52;13.50;;;10.15;;
62014;SDS011;47970;52.396;9.586;2022-11-13T12:04:34;17.03;;;11.80;;
62014;SDS011;47970;52.396;9.586;2022-11-13T12:09:50;20.33;;;12.98;;
62014;SDS011;47970;52.396;9.586;2022-11-13T12:12:21;28.48;;;14.27;;
62014;SDS011;47970;52.396;9.586;2022-11-13T12:17:56;27.83;;;15.02;;
62014;SDS011;47970;52.396;9.586;2022-11-13T12:20:29;30.33;;;15.43;;
62014;SDS011;47970;52.396;9.586;2022-11-13T12:25:28;29.63;;;15.25;;
62014;SDS011;47970;52.396;9.586;2022-11-13T12:28:10;32.72;;;15.00;;
62014;SDS011;47970;52.396;9.586;2022-11-13T12:35:37;30.65;;;13.93;;
62014;SDS011;47970;52.396;9.586;2022-11-13T12:40:37;30.90;;;14.20;;
62014;SDS011;47970;52.396;9.586;2022-11-13T12:48:34;33.90;;;14.13;;
62014;SDS011;47970;52.396;9.586;2022-11-13T12:50:59;28.70;;;13.15;;
62014;SDS011;47970;52.396;9.586;2022-11-13T12:53:26;30.40;;;14.05;;
62014;SDS011;47970;52.396;9.586;2022-11-13T12:56:01;30.48;;;13.60;;
62014;SDS011;47970;52.396;9.586;2022-11-13T12:58:30;28.25;;;14.73;;
62014;SDS011;47970;52.396;9.586;2022-11-13T13:14:10;34.92;;;20.08;;
62014;SDS011;47970;52.396;9.586;2022-11-13T13:16:39;39.30;;;19.92;;
62014;SDS011;47970;52.396;9.586;2022-11-13T13:21:49;33.88;;;17.92;;
62014;SDS011;47970;52.396;9.586;2022-11-13T13:24:26;36.95;;;18.67;;
62014;SDS011;47970;52.396;9.586;2022-11-13T13:26:51;30.75;;;17.98;;
62014;SDS011;47970;52.396;9.586;2022-11-13T13:29:21;33.37;;;18.53;;
62014;SDS011;47970;52.396;9.586;2022-11-13T13:34:18;36.10;;;19.90;;
62014;SDS011;47970;52.396;9.586;2022-11-13T13:42:00;32.33;;;17.97;;
62014;SDS011;47970;52.396;9.586;2022-11-13T13:46:56;35.78;;;17.65;;
62014;SDS011;47970;52.396;9.586;2022-11-13T13:49:22;32.03;;;17.67;;
62014;SDS011;47970;52.396;9.586;2022-11-13T13:51:49;33.22;;;16.58;;
62014;SDS011;47970;52.396;9.586;2022-11-13T13:54:18;29.73;;;15.90;;
62014;SDS011;47970;52.396;9.586;2022-11-13T13:56:45;30.42;;;17.02;;
62014;SDS011;47970;52.396;9.586;2022-11-13T13:59:20;32.67;;;17.25;;
62014;SDS011;47970;52.396;9.586;2022-11-13T14:01:54;41.13;;;18.55;;
62014;SDS011;47970;52.396;9.586;2022-11-13T14:04:23;44.88;;;19.35;;
62014;SDS011;47970;52.396;9.586;2022-11-13T14:06:52;37.70;;;18.05;;
62014;SDS011;47970;52.396;9.586;2022-11-13T14:09:22;30.50;;;14.68;;
62014;SDS011;47970;52.396;9.586;2022-11-13T14:11:55;34.25;;;17.00;;
62014;SDS011;47970;52.396;9.586;2022-11-13T14:14:21;35.55;;;16.90;;
62014;SDS011;47970;52.396;9.586;2022-11-13T14:16:50;37.60;;;18.02;;
62014;SDS011;47970;52.396;9.586;2022-11-13T14:19:16;40.05;;;17.88;;
62014;SDS011;47970;52.396;9.586;2022-11-13T14:21:42;45.72;;;18.48;;
62014;SDS011;47970;52.396;9.586;2022-11-13T14:24:18;38.63;;;18.10;;
62014;SDS011;47970;52.396;9.586;2022-11-13T14:26:44;34.08;;;16.45;;
62014;SDS011;47970;52.396;9.586;2022-11-13T14:29:14;28.10;;;15.48;;
62014;SDS011;47970;52.396;9.586;2022-11-13T14:31:44;25.63;;;12.27;;
62014;SDS011;47970;52.396;9.586;2022-11-13T14:34:11;28.63;;;13.75;;
62014;SDS011;47970;52.396;9.586;2022-11-13T14:36:38;26.90;;;13.45;;
62014;SDS011;47970;52.396;9.586;2022-11-13T14:39:04;30.00;;;14.20;;
62014;SDS011;47970;52.396;9.586;2022-11-13T14:43:55;27.73;;;11.97;;
62014;SDS011;47970;52.396;9.586;2022-11-13T14:46:33;23.60;;;12.05;;
62014;SDS011;47970;52.396;9.586;2022-11-13T14:48:59;24.10;;;11.57;;
62014;SDS011;47970;52.396;9.586;2022-11-13T14:51:25;26.70;;;11.93;;
62014;SDS011;47970;52.396;9.586;2022-11-13T14:54:04;27.45;;;12.25;;
62014;SDS011;47970;52.396;9.586;2022-11-13T14:56:34;24.90;;;12.77;;
62014;SDS011;47970;52.396;9.586;2022-11-13T14:59:11;26.23;;;11.10;;
62014;SDS011;47970;52.396;9.586;2022-11-13T15:01:37;23.77;;;12.18;;
62014;SDS011;47970;52.396;9.586;2022-11-13T15:04:02;26.42;;;12.82;;
62014;SDS011;47970;52.396;9.586;2022-11-13T15:06:38;25.23;;;11.50;;
62014;SDS011;47970;52.396;9.586;2022-11-13T15:09:04;28.38;;;13.23;;
62014;SDS011;47970;52.396;9.586;2022-11-13T15:11:30;30.90;;;12.85;;
62014;SDS011;47970;52.396;9.586;2022-11-13T15:13:56;29.80;;;13.88;;
62014;SDS011;47970;52.396;9.586;2022-11-13T15:16:21;29.80;;;13.27;;
62014;SDS011;47970;52.396;9.586;2022-11-13T15:18:48;30.88;;;13.10;;
62014;SDS011;47970;52.396;9.586;2022-11-13T15:21:14;33.85;;;14.43;;
62014;SDS011;47970;52.396;9.586;2022-11-13T15:23:39;31.75;;;14.38;;
62014;SDS011;47970;52.396;9.586;2022-11-13T15:26:05;28.77;;;13.30;;
62014;SDS011;47970;52.396;9.586;2022-11-13T15:28:30;29.63;;;13.30;;
62014;SDS011;47970;52.396;9.586;2022-11-13T15:30:55;26.00;;;11.73;;
62014;SDS011;47970;52.396;9.586;2022-11-13T15:33:20;31.37;;;13.90;;
62014;SDS011;47970;52.396;9.586;2022-11-13T15:35:46;30.17;;;13.00;;
62014;SDS011;47970;52.396;9.586;2022-11-13T15:38:11;31.75;;;13.48;;
62014;SDS011;47970;52.396;9.586;2022-11-13T15:40:36;30.58;;;14.20;;
62014;SDS011;47970;52.396;9.586;2022-11-13T15:43:02;30.90;;;13.85;;
62014;SDS011;47970;52.396;9.586;2022-11-13T15:45:28;28.67;;;13.57;;
62014;SDS011;47970;52.396;9.586;2022-11-13T15:47:53;33.38;;;14.35;;
62014;SDS011;47970;52.396;9.586;2022-11-13T15:50:18;33.83;;;14.15;;
62014;SDS011;47970;52.396;9.586;2022-11-13T15:52:44;36.63;;;14.23;;
62014;SDS011;47970;52.396;9.586;2022-11-13T15:55:16;31.77;;;13.48;;
62014;SDS011;47970;52.396;9.586;2022-11-13T15:57:42;32.13;;;15.02;;
62014;SDS011;47970;52.396;9.586;2022-11-13T16:00:11;30.37;;;13.60;;
62014;SDS011;47970;52.396;9.586;2022-11-13T16:02:37;29.17;;;12.75;;